createdAt,value
2018-03-07T00:00:38.723Z,9.09
2018-03-07T00:01:38.688Z,9.04
2018-03-07T00:03:35.151Z,8.85
2018-03-07T00:04:35.155Z,8.85
2018-03-07T00:06:30.541Z,8.82
2018-03-07T00:07:30.553Z,8.80
2018-03-07T00:09:26.541Z,8.71
2018-03-07T00:10:26.506Z,8.74
2018-03-07T00:12:22.465Z,8.67
2018-03-07T00:13:22.955Z,8.67
2018-03-07T00:15:18.391Z,8.57
2018-03-07T00:16:18.381Z,8.53
2018-03-07T00:18:14.335Z,8.50
2018-03-07T00:19:14.308Z,8.62
2018-03-07T00:21:10.221Z,8.54
2018-03-07T00:22:10.218Z,8.53
2018-03-07T00:24:06.658Z,8.46
2018-03-07T00:25:06.153Z,8.47
2018-03-07T00:27:02.077Z,8.42
2018-03-07T00:28:02.585Z,8.47
2018-03-07T00:29:59.528Z,8.47
2018-03-07T00:30:58.034Z,8.34
2018-03-07T00:32:53.963Z,8.31
2018-03-07T00:33:53.954Z,8.35
2018-03-07T00:35:49.890Z,8.35
2018-03-07T00:36:49.909Z,8.28
2018-03-07T00:38:46.331Z,8.29
2018-03-07T00:39:45.825Z,8.34
2018-03-07T00:41:41.745Z,8.40
2018-03-07T00:42:41.732Z,8.44
2018-03-07T00:44:37.720Z,8.29
2018-03-07T00:45:37.689Z,8.31
2018-03-07T00:47:34.141Z,8.39
2018-03-07T00:48:33.620Z,8.32
2018-03-07T00:50:30.588Z,8.32
2018-03-07T00:51:29.581Z,8.39
2018-03-07T00:53:26.018Z,8.40
2018-03-07T00:54:25.610Z,8.39
2018-03-07T00:56:21.458Z,8.35
2018-03-07T00:57:21.445Z,8.39
2018-03-07T00:59:17.383Z,8.34
2018-03-07T01:00:17.381Z,8.24
2018-03-07T01:02:13.340Z,8.28
2018-03-07T01:03:13.310Z,8.19
2018-03-07T01:05:10.788Z,8.13
2018-03-07T01:06:09.260Z,8.22
2018-03-07T01:08:04.635Z,8.19
2018-03-07T01:09:03.718Z,8.13
2018-03-07T01:10:59.645Z,8.14
2018-03-07T01:12:00.157Z,8.14
2018-03-07T01:13:57.523Z,8.11
2018-03-07T01:14:56.091Z,8.11
2018-03-07T01:16:51.495Z,8.13
2018-03-07T01:17:51.494Z,8.14
2018-03-07T01:19:47.946Z,8.22
2018-03-07T01:20:47.409Z,8.17
2018-03-07T01:22:43.349Z,8.19
2018-03-07T01:23:43.355Z,8.13
2018-03-07T01:25:39.281Z,8.14
2018-03-07T01:26:39.295Z,8.03
2018-03-07T01:28:37.256Z,8.07
2018-03-07T01:29:37.190Z,8.07
2018-03-07T01:31:34.170Z,8.01
2018-03-07T01:32:33.152Z,8.07
2018-03-07T01:34:30.086Z,8.01
2018-03-07T01:35:29.085Z,8.10
2018-03-07T01:37:26.022Z,8.07
2018-03-07T01:38:25.023Z,8.09
2018-03-07T01:40:22.481Z,8.04
2018-03-07T01:41:21.470Z,8.07
2018-03-07T01:43:16.906Z,8.07
2018-03-07T01:44:16.901Z,8.13
2018-03-07T01:46:12.854Z,8.06
2018-03-07T01:47:12.823Z,8.07
2018-03-07T01:49:08.780Z,8.09
2018-03-07T01:50:08.710Z,8.07
2018-03-07T01:52:05.171Z,8.09
2018-03-07T01:53:04.665Z,8.10
2018-03-07T01:55:00.585Z,8.06
2018-03-07T01:56:00.587Z,8.06
2018-03-07T01:57:56.511Z,8.03
2018-03-07T01:58:56.511Z,8.01
2018-03-07T02:00:52.959Z,7.93
2018-03-07T02:01:52.439Z,7.91
2018-03-07T02:03:48.382Z,7.83
2018-03-07T02:04:48.386Z,7.77
2018-03-07T02:06:44.350Z,7.83
2018-03-07T02:07:44.315Z,7.85
2018-03-07T02:09:40.275Z,7.86
2018-03-07T02:10:40.755Z,7.82
2018-03-07T02:12:36.165Z,7.73
2018-03-07T02:13:36.159Z,7.77
2018-03-07T02:15:32.608Z,7.74
2018-03-07T02:16:32.091Z,7.80
2018-03-07T02:18:28.058Z,7.82
2018-03-07T02:19:28.027Z,7.86
2018-03-07T02:21:23.958Z,7.75
2018-03-07T02:22:23.937Z,7.77
2018-03-07T02:24:20.354Z,7.71
2018-03-07T02:25:19.842Z,7.73
2018-03-07T02:27:15.774Z,7.67
2018-03-07T02:28:15.780Z,7.64
2018-03-07T02:30:11.719Z,7.59
2018-03-07T02:31:11.709Z,7.68
2018-03-07T02:33:07.677Z,7.58
2018-03-07T02:34:07.635Z,7.59
2018-03-07T02:36:04.101Z,7.54
2018-03-07T02:37:03.574Z,7.61
2018-03-07T02:39:00.027Z,7.61
2018-03-07T02:39:59.470Z,7.67
2018-03-07T02:41:55.447Z,7.67
2018-03-07T02:42:55.422Z,7.52
2018-03-07T02:44:51.419Z,7.52
2018-03-07T02:45:51.901Z,7.54
2018-03-07T02:47:48.264Z,7.61
2018-03-07T02:48:47.845Z,7.58
2018-03-07T02:50:43.290Z,7.64
2018-03-07T02:51:43.768Z,7.68
2018-03-07T02:53:39.722Z,7.75
2018-03-07T02:54:39.184Z,7.75
2018-03-07T02:56:35.624Z,7.67
2018-03-07T02:57:35.144Z,7.73
2018-03-07T02:59:31.104Z,7.77
2018-03-07T03:00:31.624Z,7.68
2018-03-07T03:02:28.028Z,7.58
2018-03-07T03:03:27.523Z,7.64
2018-03-07T03:05:23.435Z,7.68
2018-03-07T03:06:22.922Z,7.67
2018-03-07T03:08:18.890Z,7.71
2018-03-07T03:09:19.353Z,7.74
2018-03-07T03:11:15.283Z,7.64
2018-03-07T03:12:15.758Z,7.56
2018-03-07T03:14:10.710Z,7.73
2018-03-07T03:15:11.229Z,7.68
2018-03-07T03:17:07.162Z,7.70
2018-03-07T03:18:06.620Z,7.74
2018-03-07T03:20:03.068Z,7.59
2018-03-07T03:21:02.548Z,7.68
2018-03-07T03:23:00.033Z,7.70
2018-03-07T03:23:58.504Z,7.71
2018-03-07T03:25:54.476Z,7.54
2018-03-07T03:26:54.458Z,7.63
2018-03-07T03:28:50.909Z,7.58
2018-03-07T03:29:50.375Z,7.63
2018-03-07T03:31:46.815Z,7.71
2018-03-07T03:32:46.818Z,7.68
2018-03-07T03:34:42.746Z,7.75
2018-03-07T03:35:42.252Z,7.80
2018-03-07T03:37:38.194Z,7.83
2018-03-07T03:38:39.674Z,7.93
2018-03-07T03:40:34.625Z,7.95
2018-03-07T03:41:34.098Z,7.88
2018-03-07T03:43:30.044Z,7.88
2018-03-07T03:44:30.035Z,7.77
2018-03-07T03:46:26.490Z,7.77
2018-03-07T03:47:25.978Z,7.64
2018-03-07T03:49:21.893Z,7.70
2018-03-07T03:50:21.894Z,7.64
2018-03-07T03:52:17.857Z,7.51
2018-03-07T03:53:17.818Z,7.51
2018-03-07T03:55:13.792Z,7.39
2018-03-07T03:56:14.277Z,7.31
2018-03-07T03:58:10.707Z,7.30
2018-03-07T03:59:09.676Z,7.22
2018-03-07T04:01:06.127Z,7.15
2018-03-07T04:02:06.133Z,7.11
2018-03-07T04:04:01.534Z,7.18
2018-03-07T04:05:01.543Z,7.03
2018-03-07T04:06:57.501Z,7.03
2018-03-07T04:07:57.453Z,6.98
2018-03-07T04:09:53.380Z,6.94
2018-03-07T04:10:53.391Z,6.97
2018-03-07T04:12:49.844Z,6.83
2018-03-07T04:13:49.320Z,6.91
2018-03-07T04:15:45.281Z,6.79
2018-03-07T04:16:45.248Z,6.72
2018-03-07T04:18:41.223Z,6.58
2018-03-07T04:19:41.155Z,6.55
2018-03-07T04:21:37.600Z,6.57
2018-03-07T04:22:37.120Z,6.52
2018-03-07T04:24:33.043Z,6.47
2018-03-07T04:25:33.582Z,6.60
2018-03-07T04:27:28.972Z,6.55
2018-03-07T04:28:28.957Z,6.40
2018-03-07T04:30:25.410Z,6.33
2018-03-07T04:31:24.896Z,6.31
2018-03-07T04:33:21.821Z,6.44
2018-03-07T04:34:20.822Z,6.44
2018-03-07T04:36:17.269Z,6.37
2018-03-07T04:37:16.737Z,6.43
2018-03-07T04:39:14.704Z,6.44
2018-03-07T04:40:15.194Z,6.54
2018-03-07T04:42:11.116Z,6.55
2018-03-07T04:43:10.605Z,6.54
2018-03-07T04:45:06.573Z,6.61
2018-03-07T04:46:06.525Z,6.52
2018-03-07T04:48:02.480Z,6.51
2018-03-07T04:49:02.511Z,6.51
2018-03-07T04:50:58.919Z,6.40
2018-03-07T04:51:58.408Z,6.43
2018-03-07T04:53:54.343Z,6.44
2018-03-07T04:54:54.850Z,6.39
2018-03-07T04:56:53.288Z,6.46
2018-03-07T04:57:52.366Z,6.46
2018-03-07T04:59:48.334Z,6.42
2018-03-07T05:00:48.293Z,6.44
2018-03-07T05:02:44.849Z,6.40
2018-03-07T05:03:44.231Z,6.44
2018-03-07T05:05:41.091Z,6.44
2018-03-07T05:06:40.659Z,6.43
2018-03-07T05:08:36.594Z,6.46
2018-03-07T05:09:36.062Z,6.44
2018-03-07T05:11:31.976Z,6.44
2018-03-07T05:12:32.002Z,6.44
2018-03-07T05:14:29.424Z,6.43
2018-03-07T05:15:29.435Z,6.36
2018-03-07T05:17:23.850Z,6.36
2018-03-07T05:18:23.850Z,6.31
2018-03-07T05:20:20.724Z,6.33
2018-03-07T05:21:19.774Z,6.29
2018-03-07T05:23:15.742Z,6.24
2018-03-07T05:24:15.694Z,6.34
2018-03-07T05:26:11.661Z,6.28
2018-03-07T05:27:11.642Z,6.25
2018-03-07T05:29:07.596Z,6.15
2018-03-07T05:30:07.576Z,6.09
2018-03-07T05:32:03.537Z,6.09
2018-03-07T05:33:04.020Z,6.00
2018-03-07T05:34:59.948Z,6.02
2018-03-07T05:35:59.441Z,6.09
2018-03-07T05:37:55.868Z,6.09
2018-03-07T05:38:55.370Z,6.07
2018-03-07T05:40:51.328Z,6.10
2018-03-07T05:41:51.306Z,6.05
2018-03-07T05:43:47.744Z,5.89
2018-03-07T05:44:47.234Z,5.91
2018-03-07T05:46:43.189Z,5.87
2018-03-07T05:47:43.172Z,5.81
2018-03-07T05:49:41.117Z,5.75
2018-03-07T05:50:41.625Z,5.75
2018-03-07T05:52:37.074Z,5.64
2018-03-07T05:53:37.066Z,5.59
2018-03-07T05:55:34.513Z,5.54
2018-03-07T05:56:33.012Z,5.52
2018-03-07T05:58:28.959Z,5.55
2018-03-07T05:59:28.897Z,5.48
2018-03-07T06:01:25.843Z,5.44
2018-03-07T06:02:25.347Z,5.52
2018-03-07T06:04:23.281Z,5.62
2018-03-07T06:05:23.281Z,5.59
2018-03-07T06:07:20.220Z,5.54
2018-03-07T06:08:19.726Z,5.59
2018-03-07T06:10:15.665Z,5.49
2018-03-07T06:11:15.638Z,5.62
2018-03-07T06:13:14.589Z,5.62
2018-03-07T06:14:13.584Z,5.63
2018-03-07T06:16:09.524Z,5.64
2018-03-07T06:17:09.505Z,5.59
2018-03-07T06:19:05.429Z,5.78
2018-03-07T06:20:05.405Z,5.73
2018-03-07T06:22:01.888Z,5.82
2018-03-07T06:23:01.864Z,5.82
2018-03-07T06:24:59.328Z,5.84
2018-03-07T06:25:59.798Z,5.82
2018-03-07T06:27:55.715Z,5.85
2018-03-07T06:28:55.181Z,5.82
2018-03-07T06:30:51.106Z,5.85
2018-03-07T06:31:51.642Z,5.82
2018-03-07T06:33:47.066Z,5.91
2018-03-07T06:34:47.078Z,5.89
2018-03-07T06:36:42.995Z,5.89
2018-03-07T06:37:43.007Z,5.95
2018-03-07T06:39:38.977Z,5.89
2018-03-07T06:40:38.927Z,5.96
2018-03-07T06:42:34.834Z,6.00
2018-03-07T06:43:34.853Z,5.98
2018-03-07T06:45:30.796Z,5.89
2018-03-07T06:46:31.300Z,5.95
2018-03-07T06:48:27.721Z,5.89
2018-03-07T06:49:27.226Z,5.91
2018-03-07T06:51:22.637Z,5.85
2018-03-07T06:52:22.624Z,5.84
2018-03-07T06:54:19.077Z,5.81
2018-03-07T06:55:18.586Z,5.92
2018-03-07T06:57:14.527Z,5.99
2018-03-07T06:58:15.020Z,5.98
2018-03-07T07:00:10.448Z,6.00
2018-03-07T07:01:10.429Z,6.02
2018-03-07T07:03:06.374Z,5.99
2018-03-07T07:04:06.867Z,6.07
2018-03-07T07:06:04.271Z,6.10
2018-03-07T07:07:04.276Z,6.10
2018-03-07T07:09:02.253Z,6.24
2018-03-07T07:10:02.726Z,6.21
2018-03-07T07:11:58.668Z,6.14
2018-03-07T07:12:58.114Z,6.29
2018-03-07T07:14:54.060Z,6.31
2018-03-07T07:15:54.564Z,6.33
2018-03-07T07:17:50.475Z,6.36
2018-03-07T07:18:49.948Z,6.40
2018-03-07T07:20:47.879Z,6.46
2018-03-07T07:21:47.871Z,6.51
2018-03-07T07:23:43.802Z,6.51
2018-03-07T07:24:44.319Z,6.61
2018-03-07T07:26:39.756Z,6.57
2018-03-07T07:27:40.235Z,6.65
2018-03-07T07:29:37.685Z,6.68
2018-03-07T07:30:37.647Z,6.68
2018-03-07T07:32:35.586Z,6.79
2018-03-07T07:33:35.580Z,6.79
2018-03-07T07:35:31.502Z,6.72
2018-03-07T07:36:31.524Z,6.72
2018-03-07T07:38:29.486Z,6.67
2018-03-07T07:39:29.421Z,6.61
2018-03-07T07:41:27.358Z,6.70
2018-03-07T07:42:27.358Z,6.65
2018-03-07T07:44:23.812Z,6.75
2018-03-07T07:45:23.264Z,6.73
2018-03-07T07:47:19.233Z,6.79
2018-03-07T07:48:19.196Z,6.79
2018-03-07T07:50:16.150Z,6.82
2018-03-07T07:51:15.166Z,6.80
2018-03-07T07:53:12.098Z,6.91
2018-03-07T07:54:11.070Z,6.98
2018-03-07T07:56:07.542Z,7.01
2018-03-07T07:57:07.513Z,6.94
2018-03-07T07:59:03.472Z,6.94
2018-03-07T08:00:02.886Z,6.98
2018-03-07T08:01:59.369Z,7.01
2018-03-07T08:02:58.825Z,7.00
2018-03-07T08:04:56.757Z,6.91
2018-03-07T08:05:56.801Z,6.82
2018-03-07T08:07:52.711Z,6.82
2018-03-07T08:08:52.676Z,6.78
2018-03-07T08:10:51.123Z,6.78
2018-03-07T08:11:50.600Z,6.80
2018-03-07T08:13:48.570Z,6.86
2018-03-07T08:14:48.542Z,6.94
2018-03-07T08:16:46.981Z,6.90
2018-03-07T08:17:46.467Z,7.09
2018-03-07T08:19:44.444Z,7.16
2018-03-07T08:20:44.382Z,7.27
2018-03-07T08:22:40.845Z,7.23
2018-03-07T08:23:40.316Z,7.30
2018-03-07T08:25:36.275Z,7.34
2018-03-07T08:26:36.764Z,7.39
2018-03-07T08:28:32.220Z,7.36
2018-03-07T08:29:32.175Z,7.51
2018-03-07T08:33:04.769Z,7.64
2018-03-07T08:34:04.765Z,7.74
2018-03-07T08:36:01.205Z,7.70
2018-03-07T08:37:00.668Z,7.80
2018-03-07T08:38:58.648Z,7.95
2018-03-07T08:39:58.571Z,8.03
2018-03-07T08:41:54.490Z,8.25
2018-03-07T08:42:54.490Z,8.26
2018-03-07T08:44:51.448Z,8.29
2018-03-07T08:45:50.432Z,8.29
2018-03-07T08:47:48.430Z,8.32
2018-03-07T08:48:48.372Z,8.39
2018-03-07T08:50:46.326Z,8.40
2018-03-07T08:51:46.820Z,8.44
2018-03-07T08:53:45.668Z,8.46
2018-03-07T08:54:44.740Z,8.50
2018-03-07T08:56:40.664Z,8.58
2018-03-07T08:57:40.149Z,8.60
2018-03-07T08:59:36.624Z,8.53
2018-03-07T09:00:36.128Z,8.58
2018-03-07T09:02:32.037Z,8.57
2018-03-07T09:03:32.555Z,8.65
2018-03-07T09:05:28.510Z,8.64
2018-03-07T09:06:28.015Z,8.54
2018-03-07T09:08:26.029Z,8.71
2018-03-07T09:09:26.039Z,8.62
2018-03-07T09:11:21.964Z,8.68
2018-03-07T09:12:21.963Z,8.68
2018-03-07T09:14:17.940Z,8.80
2018-03-07T09:15:17.900Z,8.77
2018-03-07T09:17:15.852Z,8.82
2018-03-07T09:18:15.826Z,8.82
2018-03-07T09:20:12.286Z,8.82
2018-03-07T09:21:11.751Z,8.94
2018-03-07T09:23:07.692Z,9.00
2018-03-07T09:24:07.679Z,9.00
2018-03-07T09:26:04.132Z,8.87
2018-03-07T09:27:03.623Z,8.90
2018-03-07T09:29:00.577Z,8.92
2018-03-07T09:30:00.082Z,8.95
2018-03-07T09:31:55.999Z,8.87
2018-03-07T09:32:55.504Z,8.95
2018-03-07T09:34:51.488Z,8.77
2018-03-07T09:35:51.960Z,8.80
2018-03-07T09:37:49.904Z,8.72
2018-03-07T09:38:49.358Z,8.79
2018-03-07T09:40:45.875Z,8.68
2018-03-07T09:41:45.312Z,8.69
2018-03-07T09:43:41.279Z,8.68
2018-03-07T09:44:41.256Z,8.58
2018-03-07T09:46:37.722Z,8.54
2018-03-07T09:47:37.188Z,8.53
2018-03-07T09:49:34.082Z,8.40
2018-03-07T09:50:33.698Z,8.40
2018-03-07T09:52:29.087Z,8.26
2018-03-07T09:53:29.065Z,8.43
2018-03-07T09:55:25.046Z,8.34
2018-03-07T09:56:25.068Z,8.31
2018-03-07T09:58:20.922Z,8.42
2018-03-07T09:59:22.400Z,8.40
2018-03-07T10:01:16.887Z,8.42
2018-03-07T10:02:16.892Z,8.35
2018-03-07T10:04:13.831Z,8.31
2018-03-07T10:05:12.820Z,8.29
2018-03-07T10:07:09.821Z,8.17
2018-03-07T10:08:09.327Z,8.21
2018-03-07T10:10:02.210Z,8.13
2018-03-07T10:11:02.188Z,8.11
2018-03-07T10:12:59.642Z,8.16
2018-03-07T10:13:58.139Z,8.14
2018-03-07T10:15:53.604Z,8.07
2018-03-07T10:16:52.559Z,8.17
2018-03-07T10:18:48.494Z,8.17
2018-03-07T10:19:48.506Z,8.17
2018-03-07T10:21:44.445Z,8.16
2018-03-07T10:22:46.005Z,8.13
2018-03-07T10:24:40.409Z,8.19
2018-03-07T10:25:40.344Z,8.11
2018-03-07T10:27:36.297Z,8.11
2018-03-07T10:28:36.361Z,8.25
2018-03-07T10:30:31.681Z,8.28
2018-03-07T10:31:30.725Z,8.26
2018-03-07T10:33:26.654Z,8.40
2018-03-07T10:34:26.689Z,8.40
2018-03-07T10:36:22.661Z,8.61
2018-03-07T10:37:22.622Z,8.68
2018-03-07T10:39:18.599Z,8.83
2018-03-07T10:40:18.585Z,8.98
2018-03-07T10:42:15.024Z,9.19
2018-03-07T10:43:14.530Z,9.17
2018-03-07T10:45:08.964Z,9.14
2018-03-07T10:46:08.966Z,9.16
2018-03-07T10:48:05.418Z,9.27
2018-03-07T10:49:04.918Z,9.39
2018-03-07T10:51:01.373Z,9.55
2018-03-07T10:52:00.868Z,9.62
2018-03-07T10:53:58.295Z,9.50
2018-03-07T10:54:56.780Z,9.37
2018-03-07T10:56:52.753Z,9.24
2018-03-07T10:57:52.705Z,9.34
2018-03-07T10:59:48.686Z,9.52
2018-03-07T11:00:48.656Z,9.62
2018-03-07T11:02:44.631Z,9.64
2018-03-07T11:03:44.585Z,9.62
2018-03-07T11:05:41.540Z,9.81
2018-03-07T11:06:40.566Z,9.90
2018-03-07T11:08:35.000Z,9.90
2018-03-07T11:09:35.516Z,9.93
2018-03-07T11:11:30.884Z,10.02
2018-03-07T11:12:30.920Z,9.96
2018-03-07T11:14:25.323Z,10.20
2018-03-07T11:15:25.332Z,10.25
2018-03-07T11:17:21.286Z,10.18
2018-03-07T11:18:21.822Z,10.21
2018-03-07T11:20:17.222Z,10.29
2018-03-07T11:21:17.208Z,10.23
2018-03-07T11:23:13.699Z,10.21
2018-03-07T11:24:13.150Z,10.17
2018-03-07T11:26:09.120Z,10.21
2018-03-07T11:27:09.108Z,10.17
2018-03-07T11:29:05.039Z,10.25
2018-03-07T11:30:05.577Z,10.23
2018-03-07T11:32:00.970Z,10.36
2018-03-07T11:33:00.941Z,10.44
2018-03-07T11:34:57.401Z,10.49
2018-03-07T11:35:56.876Z,10.55
2018-03-07T11:37:52.809Z,10.67
2018-03-07T11:38:53.334Z,10.57
2018-03-07T11:40:48.766Z,10.57
2018-03-07T11:41:48.735Z,10.54
2018-03-07T11:43:44.692Z,10.65
2018-03-07T11:44:44.695Z,10.69
2018-03-07T11:46:40.634Z,10.63
2018-03-07T11:47:40.634Z,10.76
2018-03-07T11:49:35.069Z,10.77
2018-03-07T11:50:35.587Z,10.92
2018-03-07T11:52:31.051Z,10.95
2018-03-07T11:53:31.038Z,11.02
2018-03-07T11:55:26.975Z,11.15
2018-03-07T11:56:27.481Z,11.18
2018-03-07T11:58:23.435Z,11.16
2018-03-07T11:59:22.893Z,11.21
2018-03-07T12:01:17.360Z,11.16
2018-03-07T12:02:17.841Z,11.18
2018-03-07T12:04:13.792Z,11.20
2018-03-07T12:05:13.280Z,11.23
2018-03-07T12:07:09.267Z,11.20
2018-03-07T12:08:09.227Z,11.31
2018-03-07T12:10:05.157Z,11.23
2018-03-07T12:11:05.146Z,11.21
2018-03-07T12:13:01.099Z,11.18
2018-03-07T12:14:01.084Z,11.18
2018-03-07T12:15:57.000Z,11.10
2018-03-07T12:16:57.034Z,11.15
2018-03-07T12:18:52.924Z,11.09
2018-03-07T12:19:52.925Z,11.00
2018-03-07T12:21:47.358Z,11.03
2018-03-07T12:22:47.354Z,10.94
2018-03-07T12:24:43.373Z,10.91
2018-03-07T12:25:43.827Z,10.90
2018-03-07T12:27:39.760Z,11.13
2018-03-07T12:28:39.279Z,11.18
2018-03-07T12:30:35.230Z,11.23
2018-03-07T12:31:35.197Z,11.16
2018-03-07T12:33:29.647Z,11.20
2018-03-07T12:34:29.627Z,11.28
2018-03-07T12:36:25.592Z,11.21
2018-03-07T12:37:26.105Z,11.28
2018-03-07T12:39:22.523Z,11.26
2018-03-07T12:40:21.511Z,11.23
2018-03-07T12:42:15.987Z,11.38
2018-03-07T12:43:15.963Z,11.33
2018-03-07T12:45:12.416Z,11.42
2018-03-07T12:46:11.903Z,11.46
2018-03-07T12:48:08.365Z,11.57
2018-03-07T12:49:07.799Z,11.67
2018-03-07T12:51:02.274Z,11.70
2018-03-07T12:52:00.801Z,11.75
2018-03-07T12:53:54.752Z,11.75
2018-03-07T12:54:54.246Z,11.76
2018-03-07T12:56:50.155Z,11.73
2018-03-07T12:57:50.711Z,11.73
2018-03-07T12:59:44.665Z,11.68
2018-03-07T13:00:44.598Z,11.75
2018-03-07T13:02:40.561Z,11.64
2018-03-07T13:03:40.548Z,11.63
2018-03-07T13:05:36.528Z,11.56
2018-03-07T13:06:36.515Z,11.41
2018-03-07T13:08:31.475Z,11.34
2018-03-07T13:09:31.880Z,11.41
2018-03-07T13:11:26.875Z,11.33
2018-03-07T13:12:26.834Z,11.35
2018-03-07T13:14:22.764Z,11.35
2018-03-07T13:15:22.785Z,11.34
2018-03-07T13:17:19.668Z,11.33
2018-03-07T13:18:19.241Z,11.42
2018-03-07T13:20:13.170Z,11.34
2018-03-07T13:21:13.136Z,11.39
2018-03-07T13:23:08.094Z,11.24
2018-03-07T13:24:07.586Z,11.31
2018-03-07T13:26:04.030Z,11.26
2018-03-07T13:27:03.528Z,11.31
2018-03-07T13:28:56.955Z,11.34
2018-03-07T13:29:57.495Z,11.34
2018-03-07T13:31:51.355Z,11.42
2018-03-07T13:32:51.367Z,11.46
2018-03-07T13:34:47.331Z,11.51
2018-03-07T13:35:47.817Z,11.57
2018-03-07T13:37:43.758Z,11.57
2018-03-07T13:38:43.225Z,11.42
2018-03-07T13:40:37.669Z,11.45
2018-03-07T13:41:37.664Z,11.51
2018-03-07T13:43:32.622Z,11.45
2018-03-07T13:44:32.625Z,11.33
2018-03-07T13:46:27.077Z,11.26
2018-03-07T13:47:26.560Z,11.20
2018-03-07T13:49:21.516Z,11.16
2018-03-07T13:50:20.975Z,11.15
2018-03-07T13:52:16.925Z,11.15
2018-03-07T13:53:17.441Z,11.09
2018-03-07T13:55:11.874Z,11.13
2018-03-07T13:56:11.364Z,11.06
2018-03-07T13:58:04.773Z,11.02
2018-03-07T13:59:04.765Z,11.05
2018-03-07T14:00:59.209Z,10.94
2018-03-07T14:01:59.213Z,10.97
2018-03-07T14:03:55.675Z,10.94
2018-03-07T14:04:55.147Z,10.91
2018-03-07T14:06:49.584Z,10.95
2018-03-07T14:07:49.581Z,10.91
2018-03-07T14:09:44.572Z,10.98
2018-03-07T14:10:44.041Z,10.97
2018-03-07T14:12:38.521Z,10.90
2018-03-07T14:13:38.494Z,10.92
2018-03-07T14:15:35.448Z,11.03
2018-03-07T14:16:34.958Z,11.10
2018-03-07T14:18:30.389Z,11.08
2018-03-07T14:19:30.345Z,11.05
2018-03-07T14:21:26.807Z,11.10
2018-03-07T14:22:26.300Z,11.10
2018-03-07T14:24:20.767Z,11.12
2018-03-07T14:25:20.738Z,11.10
2018-03-07T14:27:17.196Z,10.97
2018-03-07T14:28:17.633Z,11.02
2018-03-07T14:30:12.593Z,11.06
2018-03-07T14:31:12.599Z,11.10
2018-03-07T14:33:07.191Z,11.09
2018-03-07T14:34:07.181Z,11.08
2018-03-07T14:36:03.110Z,11.00
2018-03-07T14:37:03.643Z,10.95
2018-03-07T14:38:59.047Z,11.03
2018-03-07T14:39:59.039Z,11.09
2018-03-07T14:41:55.485Z,11.00
2018-03-07T14:42:54.970Z,10.92
2018-03-07T14:44:49.409Z,11.03
2018-03-07T14:45:49.393Z,10.92
2018-03-07T14:47:46.361Z,10.90
2018-03-07T14:50:08.493Z,10.84
2018-03-07T14:50:59.810Z,10.79
2018-03-07T14:52:57.258Z,10.67
2018-03-07T14:53:55.211Z,10.76
2018-03-07T14:55:49.679Z,10.75
2018-03-07T14:58:09.626Z,10.87
2018-03-07T14:59:09.370Z,10.92
2018-03-07T15:01:06.511Z,11.06
2018-03-07T15:02:06.533Z,11.09
2018-03-07T15:04:02.464Z,11.18
2018-03-07T15:05:02.972Z,11.23
2018-03-07T15:07:22.318Z,11.21
2018-03-07T15:08:22.348Z,11.18
2018-03-07T15:10:18.784Z,11.16
2018-03-07T15:11:19.773Z,11.16
2018-03-07T15:13:14.182Z,11.27
2018-03-07T15:14:14.193Z,11.16
2018-03-07T15:16:10.171Z,11.23
2018-03-07T15:17:10.646Z,11.21
2018-03-07T15:19:06.076Z,11.34
2018-03-07T15:20:06.060Z,11.33
2018-03-07T15:22:02.017Z,11.23
2018-03-07T15:24:18.240Z,11.20
2018-03-07T15:25:17.930Z,11.18
2018-03-07T15:27:14.897Z,11.15
2018-03-07T15:29:37.938Z,11.20
2018-03-07T15:30:33.971Z,11.21
2018-03-07T15:32:28.810Z,11.09
2018-03-07T15:33:28.298Z,11.06
2018-03-07T15:35:25.916Z,11.05
2018-03-07T15:36:24.261Z,11.03
2018-03-07T15:38:21.697Z,10.88
2018-03-07T15:39:20.191Z,10.83
2018-03-07T15:41:16.614Z,10.75
2018-03-07T15:42:16.110Z,10.63
2018-03-07T15:44:12.053Z,10.65
2018-03-07T15:45:12.062Z,10.52
2018-03-07T15:47:08.517Z,10.51
2018-03-07T15:48:08.002Z,10.38
2018-03-07T15:50:03.931Z,10.36
2018-03-07T15:51:03.926Z,10.39
2018-03-07T15:52:58.877Z,10.36
2018-03-07T15:53:58.357Z,10.33
2018-03-07T15:55:56.294Z,10.26
2018-03-07T15:56:56.301Z,10.18
2018-03-07T15:58:52.748Z,10.25
2018-03-07T15:59:52.215Z,10.21
2018-03-07T16:01:47.182Z,10.10
2018-03-07T16:02:46.732Z,10.15
2018-03-07T16:04:42.200Z,10.21
2018-03-07T16:05:41.698Z,10.20
2018-03-07T16:07:37.119Z,10.18
2018-03-07T16:08:37.112Z,10.13
2018-03-07T16:10:31.576Z,10.23
2018-03-07T16:11:31.549Z,10.20
2018-03-07T16:13:28.489Z,10.10
2018-03-07T16:14:27.487Z,10.07
2018-03-07T16:16:22.939Z,10.05
2018-03-07T16:17:21.934Z,10.03
2018-03-07T16:19:17.904Z,10.08
2018-03-07T16:20:18.393Z,9.98
2018-03-07T16:22:13.792Z,10.00
2018-03-07T16:23:14.377Z,9.99
2018-03-07T16:25:15.276Z,10.02
2018-03-07T16:26:09.782Z,9.93
2018-03-07T16:28:05.734Z,9.93
2018-03-07T16:29:06.736Z,9.92
2018-03-07T16:31:03.195Z,9.92
2018-03-07T16:32:01.714Z,9.89
2018-03-07T16:33:58.639Z,9.93
2018-03-07T16:34:58.126Z,9.90
2018-03-07T16:36:52.111Z,9.84
2018-03-07T16:37:52.598Z,9.80
2018-03-07T16:39:48.027Z,9.80
2018-03-07T16:40:47.988Z,9.77
2018-03-07T16:42:42.940Z,9.75
2018-03-07T16:43:42.935Z,9.77
2018-03-07T16:45:38.390Z,9.75
2018-03-07T16:46:38.358Z,9.74
2018-03-07T16:48:34.365Z,9.80
2018-03-07T16:51:30.198Z,9.74
2018-03-07T16:52:30.185Z,9.72
2018-03-07T16:54:24.625Z,9.78
2018-03-07T16:55:24.623Z,9.67
2018-03-07T16:57:19.098Z,9.71
2018-03-07T16:58:19.069Z,9.67
2018-03-07T17:00:13.517Z,9.71
2018-03-07T17:01:13.498Z,9.70
2018-03-07T17:03:09.956Z,9.70
2018-03-07T17:04:09.448Z,9.71
2018-03-07T17:06:07.522Z,9.60
2018-03-07T17:07:07.546Z,9.56
2018-03-07T17:09:01.958Z,9.50
2018-03-07T17:10:01.954Z,9.45
2018-03-07T17:11:58.908Z,9.52
2018-03-07T17:12:57.897Z,9.55
2018-03-07T17:14:53.850Z,9.53
2018-03-07T17:15:53.861Z,9.53
2018-03-07T17:18:02.380Z,9.47
2018-03-07T17:19:00.936Z,9.48
2018-03-07T17:21:56.095Z,9.38
2018-03-07T17:22:56.206Z,9.34
2018-03-07T17:25:41.311Z,9.26
2018-03-07T17:26:14.302Z,9.30
2018-03-07T17:28:20.500Z,9.32
2018-03-07T17:29:21.287Z,9.27
2018-03-07T17:31:14.981Z,9.21
2018-03-07T17:32:14.955Z,9.26
2018-03-07T17:34:10.863Z,9.26
2018-03-07T17:35:10.882Z,9.26
2018-03-07T17:37:06.250Z,9.17
2018-03-07T17:38:05.368Z,9.17
2018-03-07T17:40:03.336Z,9.17
2018-03-07T17:41:03.354Z,9.09
2018-03-07T17:42:58.302Z,9.04
2018-03-07T17:43:57.787Z,9.09
2018-03-07T17:45:53.815Z,8.98
2018-03-07T17:46:53.738Z,8.92
2018-03-07T17:48:49.647Z,8.76
2018-03-07T17:49:49.657Z,8.80
2018-03-07T17:51:46.082Z,8.61
2018-03-07T17:52:45.564Z,8.57
2018-03-07T17:54:41.504Z,8.60
2018-03-07T17:55:42.006Z,8.47
2018-03-07T17:57:35.916Z,8.43
2018-03-07T17:58:35.925Z,8.29
2018-03-07T18:00:32.873Z,8.31
2018-03-07T18:01:31.867Z,8.29
2018-03-07T18:03:28.819Z,8.28
2018-03-07T18:04:27.823Z,8.26
2018-03-07T18:06:24.768Z,8.16
2018-03-07T18:07:24.306Z,8.19
2018-03-07T18:09:19.689Z,8.09
2018-03-07T18:10:19.701Z,8.04
2018-03-07T18:12:15.079Z,8.13
2018-03-07T18:13:14.137Z,8.11
2018-03-07T18:15:10.587Z,8.10
2018-03-07T18:16:10.584Z,8.09
2018-03-07T18:18:06.500Z,8.06
2018-03-07T18:19:06.016Z,8.09
2018-03-07T18:21:02.958Z,8.06
2018-03-07T18:22:01.964Z,8.04
2018-03-07T18:23:56.365Z,8.03
2018-03-07T18:24:56.375Z,7.95
2018-03-07T18:26:52.330Z,7.93
2018-03-07T18:27:52.816Z,7.96
2018-03-07T18:29:48.769Z,8.06
2018-03-07T18:30:48.227Z,7.95
2018-03-07T18:32:46.280Z,7.96
2018-03-07T18:33:47.196Z,7.89
2018-03-07T18:35:40.692Z,7.82
2018-03-07T18:36:40.694Z,7.83
2018-03-07T18:38:37.165Z,7.83
2018-03-07T18:39:36.633Z,7.80
2018-03-07T18:41:32.543Z,7.80
2018-03-07T18:42:33.055Z,7.74
2018-03-07T18:44:28.989Z,7.83
2018-03-07T18:45:28.453Z,7.78
2018-03-07T18:47:25.849Z,7.71
2018-03-07T18:48:24.396Z,7.73
2018-03-07T18:50:20.876Z,7.54
2018-03-07T18:51:20.360Z,7.61
2018-03-07T18:53:17.277Z,7.56
2018-03-07T18:54:16.285Z,7.61
2018-03-07T18:56:13.730Z,7.51
2018-03-07T18:57:12.189Z,7.58
2018-03-07T18:59:08.169Z,7.40
2018-03-07T19:00:08.093Z,7.40
2018-03-07T19:02:04.066Z,7.40
2018-03-07T19:03:04.024Z,7.45
2018-03-07T19:04:58.479Z,7.44
2018-03-07T19:05:58.470Z,7.41
2018-03-07T19:07:54.441Z,7.40
2018-03-07T19:08:54.395Z,7.31
2018-03-07T19:10:50.352Z,7.29
2018-03-07T19:11:50.316Z,7.36
2018-03-07T19:13:46.792Z,7.37
2018-03-07T19:14:46.252Z,7.27
2018-03-07T19:16:42.200Z,7.27
2018-03-07T19:17:42.704Z,7.27
2018-03-07T19:19:38.157Z,7.30
2018-03-07T19:20:38.141Z,7.22
2018-03-07T19:22:34.604Z,7.19
2018-03-07T19:23:34.067Z,7.22
2018-03-07T19:25:30.529Z,7.26
2018-03-07T19:26:30.519Z,7.23
2018-03-07T19:28:25.946Z,7.23